createdAt,value
2022-07-30T00:00:19.752Z,22.80
2022-07-30T00:02:53.404Z,22.90
2022-07-30T00:05:21.463Z,23.00
2022-07-30T00:07:49.282Z,23.10
2022-07-30T00:10:17.037Z,23.00
2022-07-30T00:12:44.871Z,22.90
2022-07-30T00:15:12.795Z,23.00
2022-07-30T00:17:40.746Z,22.80
2022-07-30T00:20:09.601Z,22.60
2022-07-30T00:22:40.847Z,22.40
2022-07-30T00:25:10.325Z,22.40
2022-07-30T00:27:38.234Z,22.60
2022-07-30T00:30:07.149Z,22.50
2022-07-30T00:32:34.923Z,22.30
2022-07-30T00:35:03.714Z,22.20
2022-07-30T00:37:31.572Z,22.10
2022-07-30T00:39:59.426Z,22.20
2022-07-30T00:42:39.971Z,22.30
2022-07-30T00:45:09.111Z,22.50
2022-07-30T00:47:38.558Z,22.60
2022-07-30T00:50:08.722Z,22.50
2022-07-30T00:52:40.880Z,22.50
2022-07-30T00:55:11.576Z,22.50
2022-07-30T00:57:40.270Z,22.40
2022-07-30T01:00:11.049Z,22.40
2022-07-30T01:02:39.212Z,22.40
2022-07-30T01:05:07.988Z,22.40
2022-07-30T01:07:36.170Z,22.20
2022-07-30T01:10:05.777Z,22.00
2022-07-30T01:12:34.037Z,22.10
2022-07-30T01:15:05.107Z,22.20
2022-07-30T01:17:34.385Z,22.10
2022-07-30T01:20:16.162Z,22.00
2022-07-30T01:23:05.230Z,22.00
2022-07-30T01:25:41.994Z,22.10
2022-07-30T01:28:14.303Z,22.20
2022-07-30T01:30:47.437Z,22.20
2022-07-30T01:33:19.144Z,22.20
2022-07-30T01:35:48.524Z,22.20
2022-07-30T01:38:22.054Z,22.20
2022-07-30T01:40:51.831Z,22.20
2022-07-30T01:43:21.724Z,22.20
2022-07-30T01:45:50.667Z,22.20
2022-07-30T01:48:22.387Z,22.10
2022-07-30T01:50:54.945Z,21.90
2022-07-30T01:53:28.258Z,21.90
2022-07-30T01:55:57.096Z,21.80
2022-07-30T01:58:28.005Z,21.90
2022-07-30T02:00:59.202Z,21.90
2022-07-30T02:03:28.340Z,21.70
2022-07-30T02:06:00.921Z,21.50
2022-07-30T02:08:48.843Z,21.70
2022-07-30T02:11:39.776Z,21.80
2022-07-30T02:14:24.024Z,21.80
2022-07-30T02:16:56.494Z,21.60
2022-07-30T02:19:32.849Z,21.70
2022-07-30T02:22:08.876Z,21.90
2022-07-30T02:24:38.997Z,21.80
2022-07-30T02:27:34.870Z,21.90
2022-07-30T02:30:08.014Z,21.90
2022-07-30T02:32:40.492Z,21.90
2022-07-30T02:35:20.286Z,21.90
2022-07-30T02:37:51.128Z,22.00
2022-07-30T02:40:21.214Z,22.10
2022-07-30T02:42:51.769Z,22.10
2022-07-30T02:45:25.402Z,22.10
2022-07-30T02:47:58.945Z,22.00
2022-07-30T02:50:28.695Z,22.00
2022-07-30T02:52:59.639Z,22.00
2022-07-30T02:55:30.320Z,22.00
2022-07-30T02:57:59.033Z,22.10
2022-07-30T03:00:31.181Z,22.10
2022-07-30T03:03:01.834Z,22.20
2022-07-30T03:05:30.382Z,22.10
2022-07-30T03:08:01.518Z,22.10
2022-07-30T03:10:30.243Z,22.00
2022-07-30T03:13:00.086Z,21.90
2022-07-30T03:15:28.993Z,22.00
2022-07-30T03:17:58.782Z,22.00
2022-07-30T03:20:32.248Z,22.00
2022-07-30T03:23:03.225Z,22.00
2022-07-30T03:25:32.967Z,21.90
2022-07-30T03:28:04.021Z,21.90
2022-07-30T03:30:34.715Z,21.80
2022-07-30T03:33:03.662Z,21.90
2022-07-30T03:35:32.491Z,21.90
2022-07-30T03:38:01.930Z,21.90
2022-07-30T03:40:31.338Z,21.90
2022-07-30T03:42:59.801Z,21.90
2022-07-30T03:45:28.192Z,22.00
2022-07-30T03:48:04.188Z,22.00
2022-07-30T03:50:37.209Z,21.90
2022-07-30T03:53:07.208Z,21.80
2022-07-30T03:55:43.583Z,21.80
2022-07-30T03:58:35.959Z,21.70
2022-07-30T04:01:06.564Z,21.70
2022-07-30T04:03:34.934Z,21.90
2022-07-30T04:06:05.828Z,21.80
2022-07-30T04:08:33.902Z,21.60
2022-07-30T04:11:01.690Z,21.50
2022-07-30T04:13:58.494Z,21.50
2022-07-30T04:16:49.043Z,21.50
2022-07-30T04:19:26.910Z,21.50
2022-07-30T04:21:57.276Z,21.50
2022-07-30T04:24:27.179Z,21.50
2022-07-30T04:26:56.789Z,21.60
2022-07-30T04:29:25.078Z,21.60
2022-07-30T04:31:54.875Z,21.60
2022-07-30T04:34:35.058Z,21.50
2022-07-30T04:37:05.173Z,21.60
2022-07-30T04:39:33.237Z,21.80
2022-07-30T04:42:01.620Z,21.70
2022-07-30T04:44:37.477Z,21.90
2022-07-30T04:47:26.805Z,21.80
2022-07-30T04:50:15.185Z,21.80
2022-07-30T04:52:45.450Z,22.00
2022-07-30T04:55:18.364Z,22.00
2022-07-30T04:57:51.527Z,22.00
2022-07-30T05:00:20.262Z,22.10
2022-07-30T05:02:53.002Z,22.10
2022-07-30T05:05:24.046Z,22.20
2022-07-30T05:07:52.811Z,22.30
2022-07-30T05:10:21.831Z,22.40
2022-07-30T05:12:49.689Z,22.40
2022-07-30T05:15:18.729Z,22.40
2022-07-30T05:17:46.816Z,22.40
2022-07-30T05:20:15.107Z,22.40
2022-07-30T05:23:05.902Z,22.40
2022-07-30T05:25:34.050Z,22.60
2022-07-30T05:28:15.171Z,22.60
2022-07-30T05:30:44.213Z,22.70
2022-07-30T05:33:17.206Z,22.80
2022-07-30T05:35:45.924Z,22.90
2022-07-30T05:38:16.440Z,22.90
2022-07-30T05:41:18.998Z,22.90
2022-07-30T05:44:10.181Z,23.10
2022-07-30T05:46:38.320Z,23.10
2022-07-30T05:49:06.659Z,23.20
2022-07-30T05:51:34.754Z,23.20
2022-07-30T05:57:05.223Z,23.40
2022-07-30T05:59:35.195Z,23.40
2022-07-30T06:02:08.406Z,23.60
2022-07-30T06:04:54.509Z,23.60
2022-07-30T06:07:23.633Z,23.60
2022-07-30T06:09:53.349Z,23.50
2022-07-30T06:12:21.823Z,23.60
2022-07-30T06:14:49.821Z,23.60
2022-07-30T06:17:24.678Z,23.70
2022-07-30T06:20:12.200Z,23.80
2022-07-30T06:22:52.403Z,23.90
2022-07-30T06:25:27.048Z,23.80
2022-07-30T06:27:55.291Z,23.80
2022-07-30T06:30:31.254Z,23.50
2022-07-30T06:33:01.792Z,23.40
2022-07-30T06:35:30.552Z,23.60
2022-07-30T06:38:07.802Z,23.70
2022-07-30T06:40:48.401Z,23.80
2022-07-30T06:43:24.917Z,23.90
2022-07-30T06:46:20.526Z,24.10
2022-07-30T06:48:51.187Z,24.10
2022-07-30T06:51:19.338Z,24.00
2022-07-30T06:53:47.345Z,24.00
2022-07-30T06:56:15.452Z,24.30
2022-07-30T06:58:59.820Z,24.30
2022-07-30T07:01:46.161Z,24.40
2022-07-30T07:04:14.223Z,24.40
2022-07-30T07:06:42.178Z,24.60
2022-07-30T07:09:11.961Z,24.70
2022-07-30T07:11:49.275Z,24.70
2022-07-30T07:14:19.978Z,24.80
2022-07-30T07:16:49.680Z,24.80
2022-07-30T07:20:00.791Z,24.90
2022-07-30T07:22:28.192Z,24.90
2022-07-30T07:24:56.088Z,25.10
2022-07-30T07:27:27.694Z,25.00
2022-07-30T07:30:01.426Z,25.00
2022-07-30T07:32:35.461Z,24.90
2022-07-30T07:35:05.075Z,25.00
2022-07-30T07:37:34.929Z,25.10
2022-07-30T07:40:04.472Z,25.10
2022-07-30T07:42:36.627Z,25.10
2022-07-30T07:45:06.242Z,25.10
2022-07-30T07:47:52.024Z,25.20
2022-07-30T07:50:57.028Z,25.20
2022-07-30T07:53:29.164Z,25.40
2022-07-30T07:55:57.401Z,25.50
2022-07-30T07:58:26.916Z,25.60
2022-07-30T08:00:59.312Z,25.70
2022-07-30T08:03:47.295Z,25.70
2022-07-30T08:06:36.775Z,25.80
2022-07-30T08:09:25.838Z,25.70
2022-07-30T08:12:17.357Z,25.70
2022-07-30T08:15:04.021Z,25.70
2022-07-30T08:17:58.475Z,25.90
2022-07-30T08:20:44.544Z,26.00
2022-07-30T08:23:13.793Z,26.20
2022-07-30T08:25:41.865Z,26.20
2022-07-30T08:28:35.126Z,26.20
2022-07-30T08:31:00.494Z,25.90
2022-07-30T08:33:30.366Z,26.10
2022-07-30T08:35:59.347Z,26.20
2022-07-30T08:38:31.966Z,26.40
2022-07-30T08:40:59.970Z,26.40
2022-07-30T08:43:29.270Z,26.50
2022-07-30T08:46:00.800Z,26.70
2022-07-30T08:48:58.329Z,26.70
2022-07-30T08:51:26.623Z,26.70
2022-07-30T08:54:13.919Z,26.70
2022-07-30T08:56:44.517Z,26.90
2022-07-30T08:59:12.432Z,27.00
2022-07-30T09:01:40.340Z,27.10
2022-07-30T09:04:08.552Z,27.10
2022-07-30T09:06:37.565Z,27.20
2022-07-30T09:09:06.828Z,27.10
2022-07-30T09:11:38.870Z,27.30
2022-07-30T09:14:11.885Z,27.30
2022-07-30T09:16:40.391Z,27.40
2022-07-30T09:19:20.303Z,27.20
2022-07-30T09:22:01.891Z,27.30
2022-07-30T09:24:55.281Z,27.40
2022-07-30T09:27:49.279Z,27.40
2022-07-30T09:30:55.600Z,27.40
2022-07-30T09:33:45.444Z,27.50
2022-07-30T09:36:33.796Z,27.70
2022-07-30T09:39:35.237Z,27.90
2022-07-30T09:42:22.797Z,27.90
2022-07-30T09:44:53.451Z,28.00
2022-07-30T09:47:34.281Z,28.00
2022-07-30T09:50:10.573Z,28.00
2022-07-30T09:52:44.206Z,28.10
2022-07-30T09:55:32.170Z,28.00
2022-07-30T09:58:04.252Z,27.90
2022-07-30T10:00:34.543Z,27.90
2022-07-30T10:03:33.507Z,28.10
2022-07-30T10:06:42.144Z,28.10
2022-07-30T10:09:32.748Z,28.20
2022-07-30T10:12:10.656Z,28.30
2022-07-30T10:14:45.414Z,28.50
2022-07-30T10:17:17.671Z,28.60
2022-07-30T10:20:08.943Z,28.60
2022-07-30T10:22:56.093Z,28.70
2022-07-30T10:25:59.690Z,28.30
2022-07-30T10:29:00.238Z,28.30
2022-07-30T10:31:49.466Z,28.20
2022-07-30T10:34:23.769Z,28.30
2022-07-30T10:37:00.057Z,28.30
2022-07-30T10:39:47.740Z,28.30
2022-07-30T10:42:56.552Z,28.60
2022-07-30T10:45:31.444Z,28.70
2022-07-30T10:48:03.168Z,28.90
2022-07-30T10:50:33.549Z,29.00
2022-07-30T10:53:04.481Z,29.00
2022-07-30T10:55:38.739Z,29.20
2022-07-30T10:58:10.127Z,29.30
2022-07-30T11:00:53.724Z,29.20
2022-07-30T11:03:38.764Z,29.30
2022-07-30T11:06:16.291Z,29.30
2022-07-30T11:08:48.237Z,29.30
2022-07-30T11:11:59.333Z,29.30
2022-07-30T11:14:10.263Z,29.40
2022-07-30T11:16:42.310Z,29.50
2022-07-30T11:19:56.508Z,29.50
2022-07-30T11:22:40.775Z,29.70
2022-07-30T11:25:12.842Z,30.10
2022-07-30T11:27:46.435Z,30.20
2022-07-30T11:30:17.293Z,30.20
2022-07-30T11:32:53.486Z,30.20
2022-07-30T11:35:35.585Z,30.10
2022-07-30T11:38:12.469Z,30.00
2022-07-30T11:40:44.979Z,30.10
2022-07-30T11:43:35.190Z,30.10
2022-07-30T11:46:15.845Z,30.20
2022-07-30T11:48:57.235Z,30.40
2022-07-30T11:51:26.249Z,30.60
2022-07-30T11:54:07.462Z,30.60
2022-07-30T11:56:35.503Z,30.40
2022-07-30T11:59:08.654Z,30.60
2022-07-30T12:01:36.695Z,30.90
2022-07-30T12:04:06.783Z,30.80
2022-07-30T12:06:44.488Z,31.00
2022-07-30T12:09:13.042Z,31.10
2022-07-30T12:11:41.052Z,31.30
2022-07-30T12:14:08.821Z,31.30
2022-07-30T12:16:36.698Z,31.40
2022-07-30T12:19:06.399Z,31.30
2022-07-30T12:21:34.627Z,31.40
2022-07-30T12:24:12.630Z,31.50
2022-07-30T12:26:40.584Z,31.60
2022-07-30T12:29:11.910Z,31.70
2022-07-30T12:31:40.775Z,31.70
2022-07-30T12:34:26.170Z,31.70
2022-07-30T12:36:54.746Z,31.60
2022-07-30T12:39:25.655Z,31.60
2022-07-30T12:41:58.138Z,31.90
2022-07-30T12:44:37.412Z,31.70
2022-07-30T12:47:08.457Z,31.80
2022-07-30T12:49:36.883Z,31.90
2022-07-30T12:52:30.810Z,31.70
2022-07-30T12:55:02.428Z,31.90
2022-07-30T12:57:53.601Z,31.90
2022-07-30T13:00:22.954Z,32.30
2022-07-30T13:02:50.804Z,32.40
2022-07-30T13:05:18.632Z,32.00
2022-07-30T13:08:00.248Z,31.80
2022-07-30T13:10:31.277Z,32.00
2022-07-30T13:13:00.376Z,32.20
2022-07-30T13:15:28.422Z,32.20
2022-07-30T13:17:56.531Z,32.30
2022-07-30T13:20:24.433Z,32.20
2022-07-30T13:22:52.308Z,32.00
2022-07-30T13:25:21.367Z,32.20
2022-07-30T13:27:49.968Z,32.30
2022-07-30T13:30:17.754Z,32.30
2022-07-30T13:32:45.783Z,32.50
2022-07-30T13:35:14.008Z,32.50
2022-07-30T13:37:41.975Z,32.60
2022-07-30T13:40:10.498Z,32.50
2022-07-30T13:42:38.342Z,32.70
2022-07-30T13:45:07.840Z,32.70
2022-07-30T13:47:36.084Z,32.70
2022-07-30T13:50:04.161Z,32.50
2022-07-30T13:52:31.958Z,32.50
2022-07-30T13:55:00.259Z,32.60
2022-07-30T13:57:28.234Z,32.70
2022-07-30T13:59:56.143Z,32.70
2022-07-30T14:02:24.484Z,32.10
2022-07-30T14:04:59.133Z,32.30
2022-07-30T14:07:27.498Z,32.70
2022-07-30T14:09:55.335Z,32.80
2022-07-30T14:12:23.237Z,33.00
2022-07-30T14:14:51.029Z,33.10
2022-07-30T14:17:18.906Z,33.30
2022-07-30T14:19:47.608Z,33.20
2022-07-30T14:22:15.590Z,33.20
2022-07-30T14:24:43.396Z,33.20
2022-07-30T14:27:11.312Z,33.20
2022-07-30T14:29:39.289Z,33.20
2022-07-30T14:32:07.203Z,33.30
2022-07-30T14:34:34.990Z,33.30
2022-07-30T14:37:03.266Z,33.10
2022-07-30T14:39:31.327Z,33.10
2022-07-30T14:41:59.093Z,33.30
2022-07-30T14:44:27.119Z,33.10
2022-07-30T14:46:54.910Z,33.20
2022-07-30T14:49:23.823Z,33.40
2022-07-30T14:51:53.147Z,33.30
2022-07-30T14:54:22.811Z,32.80
2022-07-30T14:57:10.601Z,32.40
2022-07-30T14:59:38.721Z,32.30
2022-07-30T15:02:07.331Z,32.40
2022-07-30T15:04:41.952Z,32.80
2022-07-30T15:07:30.571Z,33.10
2022-07-30T15:10:03.279Z,33.30
2022-07-30T15:12:31.385Z,32.80
2022-07-30T15:14:59.892Z,33.10
2022-07-30T15:17:29.468Z,33.30
2022-07-30T15:19:57.169Z,33.40
2022-07-30T15:22:26.225Z,33.00
2022-07-30T15:24:54.228Z,33.10
2022-07-30T15:27:33.642Z,33.30
2022-07-30T15:30:02.802Z,33.20
2022-07-30T15:32:31.466Z,33.40
2022-07-30T15:34:59.616Z,33.00
2022-07-30T15:37:28.242Z,33.10
2022-07-30T15:39:56.727Z,33.30
2022-07-30T15:42:27.786Z,33.50
2022-07-30T15:45:15.844Z,33.70
2022-07-30T15:47:44.200Z,33.70
2022-07-30T15:50:12.583Z,33.50
2022-07-30T15:52:40.836Z,33.20
2022-07-30T15:55:09.861Z,33.20
2022-07-30T15:57:45.543Z,33.40
2022-07-30T16:00:15.043Z,33.40
2022-07-30T16:02:43.786Z,33.20
2022-07-30T16:05:14.263Z,33.30
2022-07-30T16:07:43.345Z,33.00
2022-07-30T16:10:12.984Z,32.90
2022-07-30T16:12:42.828Z,32.80
2022-07-30T16:15:11.644Z,32.80
2022-07-30T16:17:39.599Z,32.90
2022-07-30T16:20:08.192Z,32.80
2022-07-30T16:22:36.588Z,32.80
2022-07-30T16:25:04.683Z,32.60
2022-07-30T16:27:32.432Z,32.50
2022-07-30T16:30:00.327Z,32.30
2022-07-30T16:32:28.529Z,32.20
2022-07-30T16:35:02.386Z,32.10
2022-07-30T16:37:30.179Z,32.10
2022-07-30T16:39:57.930Z,32.10
2022-07-30T16:42:26.183Z,32.10
2022-07-30T16:44:54.266Z,32.00
2022-07-30T16:47:22.911Z,31.90
2022-07-30T16:49:50.959Z,31.70
2022-07-30T16:52:18.824Z,31.80
2022-07-30T16:54:46.982Z,31.80
2022-07-30T16:57:15.077Z,31.60
2022-07-30T16:59:43.905Z,31.80
2022-07-30T17:02:12.464Z,31.50
2022-07-30T17:04:41.739Z,31.40
2022-07-30T17:07:09.674Z,31.60
2022-07-30T17:09:37.639Z,31.80
2022-07-30T17:12:12.298Z,31.80
2022-07-30T17:14:41.668Z,32.30
2022-07-30T17:17:14.287Z,32.70
2022-07-30T17:19:43.260Z,33.00
2022-07-30T17:22:11.319Z,33.40
2022-07-30T17:24:39.291Z,33.60
2022-07-30T17:27:07.150Z,33.90
2022-07-30T17:29:34.976Z,34.00
2022-07-30T17:32:19.933Z,33.40
2022-07-30T17:34:48.787Z,32.80
2022-07-30T17:37:17.017Z,32.60
2022-07-30T17:40:29.820Z,32.20
2022-07-30T17:42:32.555Z,31.90
2022-07-30T17:45:01.496Z,31.50
2022-07-30T17:47:29.301Z,31.30
2022-07-30T17:49:57.081Z,31.10
2022-07-30T17:52:26.901Z,30.90
2022-07-30T17:54:55.432Z,30.80
2022-07-30T17:57:23.429Z,30.80
2022-07-30T17:59:51.307Z,30.80
2022-07-30T18:02:20.685Z,30.60
2022-07-30T18:04:56.563Z,30.80
2022-07-30T18:07:24.715Z,30.70
2022-07-30T18:09:52.634Z,30.60
2022-07-30T18:12:20.483Z,30.60
2022-07-30T18:14:48.301Z,30.50
2022-07-30T18:17:16.122Z,30.60
2022-07-30T18:19:44.059Z,30.50
2022-07-30T18:22:14.653Z,30.40
2022-07-30T18:24:44.227Z,30.30
2022-07-30T18:27:13.003Z,30.20
2022-07-30T18:29:41.397Z,30.10
2022-07-30T18:32:10.691Z,29.90
2022-07-30T18:34:38.600Z,29.80
2022-07-30T18:37:06.379Z,29.90
2022-07-30T18:39:34.186Z,29.80
2022-07-30T18:42:05.416Z,29.80
2022-07-30T18:44:33.826Z,29.80
2022-07-30T18:47:04.192Z,29.70
2022-07-30T18:49:37.213Z,29.50
2022-07-30T18:52:07.655Z,29.40
2022-07-30T18:54:37.167Z,29.30
2022-07-30T18:57:05.950Z,29.30
2022-07-30T18:59:33.784Z,29.20
2022-07-30T19:02:02.294Z,29.10
2022-07-30T19:04:31.704Z,29.10
2022-07-30T19:06:59.525Z,29.10
2022-07-30T19:09:27.559Z,28.90
2022-07-30T19:11:55.340Z,28.90
2022-07-30T19:14:23.122Z,28.80
2022-07-30T19:16:50.982Z,28.70
2022-07-30T19:19:20.094Z,28.50
2022-07-30T19:21:47.927Z,28.40
2022-07-30T19:24:15.778Z,28.40
2022-07-30T19:26:44.076Z,28.30
2022-07-30T19:29:12.474Z,28.10
2022-07-30T19:31:41.850Z,28.20
2022-07-30T19:34:11.226Z,28.10
2022-07-30T19:36:39.853Z,28.00
2022-07-30T19:39:08.794Z,28.00
2022-07-30T19:41:41.544Z,27.90
2022-07-30T19:44:10.616Z,27.90
2022-07-30T19:46:39.022Z,27.90
2022-07-30T19:49:10.740Z,27.90
2022-07-30T19:52:07.398Z,27.80
2022-07-30T19:54:26.610Z,27.90
2022-07-30T19:56:54.365Z,27.80
2022-07-30T19:59:43.666Z,27.80
2022-07-30T20:02:11.989Z,27.70
2022-07-30T20:04:43.685Z,27.60
2022-07-30T20:07:12.005Z,27.60
2022-07-30T20:09:42.742Z,27.40
2022-07-30T20:12:11.870Z,27.40
2022-07-30T20:14:43.300Z,27.30
2022-07-30T20:17:11.766Z,27.60
2022-07-30T20:19:47.827Z,27.50
2022-07-30T20:22:16.966Z,27.40
2022-07-30T20:24:45.625Z,27.20
2022-07-30T20:27:36.148Z,27.20
2022-07-30T20:30:02.187Z,27.30
2022-07-30T20:32:30.099Z,27.30
2022-07-30T20:34:58.713Z,27.40
2022-07-30T20:37:27.530Z,27.30
2022-07-30T20:39:55.985Z,27.30
2022-07-30T20:42:24.537Z,27.30
2022-07-30T20:44:57.150Z,27.10
2022-07-30T20:47:34.340Z,27.10
2022-07-30T20:50:02.852Z,27.10
2022-07-30T20:52:30.878Z,27.10
2022-07-30T20:54:58.725Z,27.30
2022-07-30T20:57:44.568Z,27.30
2022-07-30T21:00:16.566Z,27.20
2022-07-30T21:02:45.402Z,27.30
2022-07-30T21:05:19.952Z,27.10
2022-07-30T21:07:48.237Z,27.00
2022-07-30T21:10:23.450Z,27.00
2022-07-30T21:12:53.340Z,27.00
2022-07-30T21:15:26.456Z,26.80
2022-07-30T21:17:54.423Z,26.80
2022-07-30T21:20:27.756Z,26.70
2022-07-30T21:22:56.848Z,26.70
2022-07-30T21:25:33.051Z,26.60
2022-07-30T21:28:02.726Z,26.60
2022-07-30T21:33:20.217Z,26.80
2022-07-30T21:35:50.226Z,26.70
2022-07-30T21:38:18.091Z,26.60
2022-07-30T21:40:45.784Z,26.60
2022-07-30T21:43:13.594Z,26.40
2022-07-30T21:45:41.384Z,26.40
2022-07-30T21:48:10.782Z,26.40
2022-07-30T21:50:38.921Z,26.30
2022-07-30T21:53:08.378Z,26.20
2022-07-30T21:55:52.802Z,26.30
2022-07-30T21:58:25.896Z,26.30
2022-07-30T22:00:55.263Z,26.20
2022-07-30T22:04:02.732Z,26.30
2022-07-30T22:06:28.923Z,26.20
2022-07-30T22:08:57.827Z,26.20
2022-07-30T22:11:25.796Z,26.30
2022-07-30T22:14:11.102Z,26.30
2022-07-30T22:16:38.988Z,26.20
2022-07-30T22:19:15.103Z,26.10
2022-07-30T22:21:46.352Z,25.90
2022-07-30T22:24:28.803Z,26.00
2022-07-30T22:27:11.780Z,26.00
2022-07-30T22:29:43.587Z,25.90
2022-07-30T22:32:12.565Z,25.90
2022-07-30T22:34:40.649Z,25.90
2022-07-30T22:37:12.691Z,26.00
2022-07-30T22:39:50.667Z,26.00
2022-07-30T22:42:24.209Z,26.10
2022-07-30T22:44:54.666Z,26.00
2022-07-30T22:47:51.501Z,26.00
2022-07-30T22:50:29.974Z,25.90
2022-07-30T22:52:59.658Z,25.90
2022-07-30T22:55:38.472Z,25.80
2022-07-30T22:58:06.532Z,25.70
2022-07-30T23:00:34.641Z,25.80
2022-07-30T23:03:02.431Z,25.70
2022-07-30T23:05:30.561Z,25.60
2022-07-30T23:08:03.994Z,25.70
2022-07-30T23:10:32.118Z,25.70
2022-07-30T23:12:31.388Z,26.70
2022-07-30T23:13:00.176Z,25.40
2022-07-30T23:15:28.100Z,25.30
2022-07-30T23:17:56.030Z,25.30
2022-07-30T23:20:24.996Z,25.30
2022-07-30T23:22:52.887Z,25.30
2022-07-30T23:25:20.749Z,25.30
2022-07-30T23:27:49.228Z,25.40
2022-07-30T23:30:16.940Z,25.50
2022-07-30T23:32:44.755Z,25.50
2022-07-30T23:35:12.940Z,25.50
2022-07-30T23:37:48.302Z,25.50
2022-07-30T23:40:20.063Z,25.40
2022-07-30T23:42:50.292Z,25.40
2022-07-30T23:45:18.672Z,25.50
2022-07-30T23:48:02.695Z,25.20
2022-07-30T23:50:32.702Z,25.10
2022-07-30T23:53:01.506Z,25.00
2022-07-30T23:55:30.847Z,24.90
2022-07-30T23:58:00.277Z,24.80
